Weather reports worldwide

Advertisment
Maseskar, Sweden (2505): temperature & dewpoint: 29.05.2020 19:00:00 - 04.06.2020 19:00:00 (CEST)Maseskar, Sweden (2505): wind speed & gusts: 29.05.2020 19:00:00 - 04.06.2020 19:00:00 (CEST)Maseskar, Sweden (2505): wind direction: 29.05.2020 19:00:00 - 04.06.2020 19:00:00 (CEST)Maseskar, Sweden (2505): visibility: 29.05.2020 19:00:00 - 04.06.2020 19:00:00 (CEST)Maseskar, Sweden (2505): precipitation: 29.05.2020 19:00:00 - 04.06.2020 19:00:00 (CEST)
Date & Time tt [°C] td [°C] ff [km/h] ff [kn] fx [km/h] fx [kn] dd vv [km] rr [mm]
04.06.2020 19:00:00 - - - - - - - - -
04.06.2020 18:00:00 17,3 7,1 5 3 11 6 NNW 43 0,0
04.06.2020 17:00:00 17,7 7,4 10 5 13 7 WSW 39 0,0
04.06.2020 16:00:00 18,1 3,9 6 3 12 7 WSW 41 0,0
04.06.2020 15:00:00 17,3 6,5 10 5 14 8 NW 40 0,0
04.06.2020 14:00:00 16,9 6,7 6 4 14 8 WSW 40 0,0
04.06.2020 13:00:00 17,0 5,3 10 6 29 16 SSW 35 0,0
04.06.2020 12:00:00 16,7 4,1 24 13 41 22 SE 33 0,0
04.06.2020 11:00:00 16,8 3,4 34 18 42 23 SE 40 0,0
04.06.2020 10:00:00 15,4 4,7 28 15 37 20 ESE 40 0,0
04.06.2020 09:00:00 14,5 5,3 29 16 37 20 SE 42 0,0
04.06.2020 08:00:00 13,8 4,7 29 16 37 20 SE 42 0,0
04.06.2020 07:00:00 13,9 6,3 32 17 37 20 SSE 41 0,0
04.06.2020 06:00:00 13,8 6,6 30 16 38 20 SSE 38 0,0
04.06.2020 05:00:00 14,1 9,0 32 18 48 26 SSE 35 0,0
04.06.2020 04:00:00 14,5 10,5 42 23 49 26 SSE 25 0,0
04.06.2020 03:00:00 15,8 14,3 19 10 24 13 S 21 0,1
04.06.2020 02:00:00 14,9 13,4 12 7 25 14 SSW 7 1,0
04.06.2020 01:00:00 15,7 12,8 22 12 26 14 S 20 0,0
04.06.2020 00:00:00 15,8 11,8 6 3 11 6 NNE 50 0,0
03.06.2020 23:00:00 15,9 13,6 4 2 8 4 NW 36 0,0
03.06.2020 22:00:00 16,1 13,2 3 2 6 3 W 39 0,0
03.06.2020 21:00:00 16,8 11,7 3 2 6 4 WNW 44 0,0
03.06.2020 20:00:00 17,2 12,3 5 3 8 5 WNW 46 0,0
03.06.2020 19:00:00 17,4 11,9 5 3 10 5 NW 50 0,0
03.06.2020 18:00:00 17,9 11,9 8 4 11 6 W 40 0,0
03.06.2020 17:00:00 17,7 11,4 9 5 14 8 WSW 33 0,0
03.06.2020 16:00:00 17,9 13,2 13 7 21 12 SSW 26 0,0
03.06.2020 15:00:00 17,0 11,9 15 8 19 11 SSW 33 0,0
03.06.2020 14:00:00 17,1 13,4 16 9 19 10 S 23 0,0
03.06.2020 13:00:00 17,5 14,0 16 8 20 11 S 21 0,0
03.06.2020 12:00:00 16,7 13,6 16 9 22 12 S 22 0,0
03.06.2020 11:00:00 16,3 12,8 18 10 22 12 S 41 0,0
03.06.2020 10:00:00 16,8 12,5 15 8 21 11 S 28 0,0
03.06.2020 09:00:00 16,2 13,3 17 9 22 12 S 30 0,0
03.06.2020 08:00:00 15,3 13,0 19 10 26 14 SSE 37 0,0
03.06.2020 07:00:00 15,1 12,2 20 11 25 13 SSE 33 0,0
03.06.2020 06:00:00 14,8 12,8 21 11 25 13 SSE 29 0,0
03.06.2020 05:00:00 14,7 10,5 16 8 20 11 S 29 0,0
03.06.2020 04:00:00 14,7 10,5 16 9 19 10 S 28 0,0
03.06.2020 03:00:00 14,8 10,2 16 8 23 13 SW 27 0,0
03.06.2020 02:00:00 15,2 9,8 21 11 24 13 SW 36 0,0
03.06.2020 01:00:00 15,4 9,7 16 9 23 12 SW 41 0,0
03.06.2020 00:00:00 15,5 9,6 15 8 20 11 S 36 0,0
02.06.2020 23:00:00 15,3 10,9 16 8 21 11 SW 24 0,0
02.06.2020 22:00:00 15,6 10,6 15 8 18 10 SW 31 0,0
02.06.2020 21:00:00 16,1 10,4 11 6 15 8 SW 32 0,0
02.06.2020 20:00:00 16,8 9,7 8 5 15 8 SW 42 0,0
02.06.2020 19:00:00 17,1 9,3 13 7 19 10 WSW 38 0,0
02.06.2020 18:00:00 17,7 9,3 13 7 18 10 W 39 0,0
02.06.2020 17:00:00 17,9 9,2 14 8 19 10 W 42 0,0
02.06.2020 16:00:00 17,7 11,0 15 8 22 12 W 42 0,0
02.06.2020 15:00:00 17,9 11,2 13 7 18 10 W 40 0,0
02.06.2020 14:00:00 17,4 12,1 8 4 11 6 WSW 41 0,0
02.06.2020 13:00:00 17,3 12,4 5 3 12 6 SW 37 0,0
02.06.2020 12:00:00 17,3 12,6 10 5 15 8 W 41 0,0
02.06.2020 11:00:00 16,8 12,7 10 6 13 7 W 32 0,0
02.06.2020 10:00:00 16,5 13,2 11 6 17 9 WSW 36 0,0
02.06.2020 09:00:00 15,9 13,4 11 6 14 8 SW 39 0,0
02.06.2020 08:00:00 16,3 13,8 9 5 13 7 S 41 0,0
02.06.2020 07:00:00 15,7 13,5 6 4 12 7 SSW 43 0,0
02.06.2020 06:00:00 15,2 13,6 8 5 11 6 SSW 50 0,0
02.06.2020 05:00:00 14,9 13,6 8 4 10 5 S 44 0,0
02.06.2020 04:00:00 14,8 13,5 6 3 7 4 S 50 0,0
02.06.2020 03:00:00 14,7 13,7 3 2 4 2 SSE 44 0,0
02.06.2020 02:00:00 15,0 13,0 3 1 10 5 N 50 0,0
02.06.2020 01:00:00 15,0 13,5 9 5 15 8 NW 50 0,0
02.06.2020 00:00:00 15,0 13,5 10 5 14 8 N 50 0,0
01.06.2020 23:00:00 15,3 13,2 13 7 19 10 NNW 50 0,0
01.06.2020 22:00:00 15,9 12,8 15 8 21 11 NW 50 0,0
01.06.2020 21:00:00 16,5 13,4 16 9 19 10 NW 50 0,0
01.06.2020 20:00:00 17,1 14,2 14 8 19 11 NW 49 0,0
01.06.2020 19:00:00 17,5 14,2 11 6 17 9 NW 49 0,0
01.06.2020 18:00:00 18,6 13,0 13 7 18 10 NW 42 0,0
01.06.2020 17:00:00 18,6 13,5 13 7 18 10 NW 50 0,0
01.06.2020 16:00:00 19,1 13,3 11 6 19 11 NW 50 0,0
01.06.2020 15:00:00 18,1 12,1 13 7 21 11 NW 43 0,0
01.06.2020 14:00:00 17,7 12,4 18 10 21 11 WNW 40 0,0
01.06.2020 13:00:00 17,0 10,8 16 8 19 10 WNW 39 0,0
01.06.2020 12:00:00 17,9 11,9 8 4 12 6 NW 35 0,0
01.06.2020 11:00:00 16,7 10,3 7 4 9 5 NNW 34 0,0
01.06.2020 10:00:00 16,3 10,4 6 3 10 5 NNW 43 0,0
01.06.2020 09:00:00 17,2 8,3 0 0 5 3 N 44 0,0
01.06.2020 08:00:00 15,5 8,5 3 2 5 3 ESE 39 0,0
01.06.2020 07:00:00 15,5 7,3 2 1 9 5 SE 45 0,0
01.06.2020 06:00:00 14,7 9,3 4 2 11 6 SSW 50 0,0
01.06.2020 05:00:00 14,4 8,8 10 5 13 7 E 50 0,0
01.06.2020 04:00:00 14,2 8,2 12 7 13 7 ENE 50 0,0
01.06.2020 03:00:00 14,8 7,7 8 5 12 7 ENE 50 0,0
01.06.2020 02:00:00 15,2 6,5 10 5 16 9 ENE 50 0,0
01.06.2020 01:00:00 16,1 6,0 14 8 17 9 ENE 50 0,0
01.06.2020 00:00:00 16,3 6,4 15 8 18 10 ENE 50 0,0
31.05.2020 23:00:00 16,6 7,3 13 7 21 12 NE 50 0,0
31.05.2020 22:00:00 18,4 6,3 19 10 24 13 ENE 50 0,0
31.05.2020 21:00:00 19,2 5,6 21 11 31 17 NE 50 0,0
31.05.2020 20:00:00 19,9 5,5 26 14 33 18 NE 50 0,0
31.05.2020 19:00:00 20,3 6,3 25 13 32 18 NE 48 0,0
31.05.2020 18:00:00 - - - - 33 18 - - -
31.05.2020 17:00:00 20,4 5,9 21 11 29 16 ENE 39 0,0
31.05.2020 16:00:00 21,1 5,0 21 11 34 19 ENE 46 0,0
31.05.2020 15:00:00 19,9 5,2 24 13 41 22 E 41 0,0
31.05.2020 14:00:00 18,6 5,8 27 15 37 20 ENE 41 0,0
31.05.2020 13:00:00 19,6 5,6 21 12 37 20 ENE 45 0,0
31.05.2020 12:00:00 18,5 5,0 22 12 34 19 NNE 46 0,0
31.05.2020 11:00:00 17,0 5,9 22 12 30 16 NNE 42 0,0
31.05.2020 10:00:00 16,1 5,4 19 10 26 14 NE 38 0,0
31.05.2020 09:00:00 15,6 5,8 19 11 32 17 NE 48 0,0
31.05.2020 08:00:00 14,2 4,2 24 13 34 18 NE 40 0,0
31.05.2020 07:00:00 13,5 5,6 23 12 31 17 ENE 50 0,0
31.05.2020 06:00:00 12,6 6,4 16 9 27 14 ENE 50 0,0
31.05.2020 05:00:00 12,5 6,2 22 12 29 15 NE 50 0,0
31.05.2020 04:00:00 12,6 7,3 19 10 23 12 NE 50 0,0
31.05.2020 03:00:00 13,1 7,1 18 10 21 11 NE 50 0,0
31.05.2020 02:00:00 13,1 7,3 12 6 17 9 NNE 50 0,0
31.05.2020 01:00:00 13,4 7,2 15 8 17 9 NE 50 0,0
31.05.2020 00:00:00 14,4 7,2 12 6 21 11 ENE 50 0,0
30.05.2020 23:00:00 15,2 6,9 18 10 26 14 ENE 50 0,0
30.05.2020 22:00:00 15,8 7,3 22 12 34 18 ENE 50 0,0
30.05.2020 21:00:00 17,1 5,4 29 16 41 22 ENE 50 0,0
30.05.2020 20:00:00 17,2 6,7 29 16 45 24 ENE 47 0,0
30.05.2020 19:00:00 18,0 5,6 36 19 47 26 ENE 50 0,0
30.05.2020 18:00:00 18,5 5,0 29 15 44 24 ENE 45 0,0
30.05.2020 17:00:00 18,5 4,6 32 17 47 25 ENE 43 0,0
30.05.2020 16:00:00 19,1 4,8 29 16 39 21 ENE 45 0,0
30.05.2020 15:00:00 19,2 4,9 25 14 38 20 ENE 44 0,0
30.05.2020 14:00:00 18,8 3,8 32 18 44 24 NE 39 0,0
30.05.2020 13:00:00 18,9 4,6 28 15 40 22 NE 43 0,0
30.05.2020 12:00:00 18,1 4,6 31 17 42 23 NNE 39 0,0
30.05.2020 11:00:00 18,1 7,2 24 13 32 17 NE 40 0,0
30.05.2020 10:00:00 17,2 8,3 15 8 22 12 ENE 40 0,0
30.05.2020 09:00:00 16,1 6,8 8 4 22 12 E 39 0,0
30.05.2020 08:00:00 13,7 7,0 15 8 21 11 NNE 38 0,0
30.05.2020 07:00:00 12,9 9,3 8 4 12 7 N 46 0,0
30.05.2020 06:00:00 12,4 9,4 6 3 9 5 N 50 0,0
30.05.2020 05:00:00 11,8 9,5 6 3 8 5 NW 50 0,0
30.05.2020 04:00:00 11,9 9,3 6 3 10 5 NW 50 0,0
30.05.2020 03:00:00 12,3 5,9 5 3 14 8 N 50 0,0
30.05.2020 02:00:00 12,9 5,8 11 6 16 9 N 50 0,0
30.05.2020 01:00:00 13,1 7,5 13 7 20 11 NNE 50 0,0
30.05.2020 00:00:00 12,9 9,7 18 10 21 11 N 49 0,0
29.05.2020 23:00:00 13,1 9,3 17 9 23 12 N 50 0,0
29.05.2020 22:00:00 13,0 10,2 11 6 17 9 N 46 0,0
29.05.2020 21:00:00 13,3 10,5 15 8 19 11 NNW 43 0,0
29.05.2020 20:00:00 13,7 9,7 18 10 25 13 NNW 37 0,0
29.05.2020 19:00:00 14,2 9,4 19 11 23 13 NNW 37 0,0

tt = temperature
td = dewpoint
ff = wind speed
fx = gusts
dd = wind direction
vv = visibility
rr = precipitation

Next stations